createdAt,value
2023-04-21T00:00:18.245Z,100.00
2023-04-21T00:03:22.801Z,100.00
2023-04-21T00:06:26.964Z,100.00
2023-04-21T00:09:29.453Z,100.00
2023-04-21T00:12:32.119Z,100.00
2023-04-21T00:15:35.611Z,100.00
2023-04-21T00:18:41.215Z,99.55
2023-04-21T00:21:43.411Z,99.46
2023-04-21T00:24:46.160Z,99.06
2023-04-21T00:27:48.457Z,99.75
2023-04-21T00:30:50.814Z,98.59
2023-04-21T00:33:54.401Z,99.08
2023-04-21T00:36:57.728Z,98.07
2023-04-21T00:39:59.931Z,98.59
2023-04-21T00:43:02.024Z,98.34
2023-04-21T00:46:05.748Z,97.63
2023-04-21T00:49:08.340Z,97.55
2023-04-21T00:52:15.154Z,97.61
2023-04-21T00:55:17.913Z,95.94
2023-04-21T00:58:20.685Z,96.90
2023-04-21T01:01:24.550Z,96.37
2023-04-21T01:04:27.572Z,96.70
2023-04-21T01:07:31.162Z,96.36
2023-04-21T01:10:34.263Z,96.66
2023-04-21T01:13:36.858Z,96.58
2023-04-21T01:16:40.108Z,96.40
2023-04-21T01:19:43.047Z,96.58
2023-04-21T01:22:45.959Z,95.27
2023-04-21T01:25:49.099Z,95.57
2023-04-21T01:28:51.603Z,95.23
2023-04-21T01:31:56.163Z,94.97
2023-04-21T01:35:01.360Z,95.46
2023-04-21T01:38:05.455Z,95.11
2023-04-21T01:41:10.970Z,95.42
2023-04-21T01:44:15.799Z,95.14
2023-04-21T01:47:18.714Z,94.87
2023-04-21T01:50:22.688Z,94.42
2023-04-21T01:53:24.905Z,95.47
2023-04-21T01:56:27.101Z,94.38
2023-04-21T01:59:30.456Z,94.70
2023-04-21T02:02:32.913Z,94.23
2023-04-21T02:05:35.182Z,93.62
2023-04-21T02:08:37.384Z,93.18
2023-04-21T02:11:39.525Z,94.53
2023-04-21T02:14:41.675Z,93.46
2023-04-21T02:17:45.329Z,93.76
2023-04-21T02:20:47.600Z,94.54
2023-04-21T02:23:50.363Z,93.67
2023-04-21T02:26:53.582Z,93.43
2023-04-21T02:29:55.902Z,93.21
2023-04-21T02:32:58.398Z,93.79
2023-04-21T02:36:01.123Z,93.27
2023-04-21T02:39:04.544Z,93.87
2023-04-21T02:42:07.965Z,93.02
2023-04-21T02:45:11.451Z,93.33
2023-04-21T02:48:13.956Z,92.88
2023-04-21T02:51:16.110Z,92.20
2023-04-21T02:54:18.320Z,92.09
2023-04-21T02:57:20.928Z,92.25
2023-04-21T03:00:23.666Z,91.80
2023-04-21T03:03:26.086Z,91.50
2023-04-21T03:06:28.464Z,92.15
2023-04-21T03:09:30.785Z,92.40
2023-04-21T03:12:35.345Z,91.83
2023-04-21T03:15:38.345Z,92.24
2023-04-21T03:18:40.551Z,91.86
2023-04-21T03:21:42.824Z,91.42
2023-04-21T03:24:46.703Z,91.03
2023-04-21T03:27:50.261Z,91.73
2023-04-21T03:30:53.218Z,90.66
2023-04-21T03:33:56.028Z,91.47
2023-04-21T03:36:58.370Z,90.80
2023-04-21T03:40:01.415Z,90.06
2023-04-21T03:43:03.882Z,91.18
2023-04-21T03:46:08.402Z,91.06
2023-04-21T03:49:10.554Z,91.44
2023-04-21T03:52:13.406Z,91.12
2023-04-21T03:55:15.583Z,90.61
2023-04-21T03:58:17.913Z,91.48
2023-04-21T04:01:22.039Z,91.19
2023-04-21T04:04:27.116Z,89.91
2023-04-21T04:07:30.289Z,89.55
2023-04-21T04:10:33.091Z,89.74
2023-04-21T04:13:35.470Z,89.99
2023-04-21T04:16:38.747Z,90.84
2023-04-21T04:19:43.837Z,89.76
2023-04-21T04:22:46.538Z,90.20
2023-04-21T04:25:50.419Z,89.57
2023-04-21T04:28:53.647Z,89.45
2023-04-21T04:31:56.536Z,89.43
2023-04-21T04:34:59.044Z,88.79
2023-04-21T04:38:01.222Z,88.96
2023-04-21T04:41:03.879Z,88.91
2023-04-21T04:44:06.374Z,88.83
2023-04-21T04:47:09.024Z,88.95
2023-04-21T04:50:11.500Z,88.45
2023-04-21T04:53:14.678Z,87.69
2023-04-21T04:56:16.873Z,88.17
2023-04-21T04:59:19.243Z,87.15
2023-04-21T05:02:25.307Z,87.62
2023-04-21T05:05:27.727Z,86.84
2023-04-21T05:08:30.428Z,87.19
2023-04-21T05:11:32.557Z,86.17
2023-04-21T05:14:34.611Z,87.41
2023-04-21T05:17:36.886Z,88.87
2023-04-21T05:20:42.260Z,92.33
2023-04-21T05:23:46.115Z,96.90
2023-04-21T05:26:48.201Z,99.28
2023-04-21T05:29:55.636Z,99.96
2023-04-21T05:32:57.835Z,99.99
2023-04-21T05:36:01.468Z,100.00
2023-04-21T05:39:04.373Z,100.00
2023-04-21T05:42:06.985Z,100.00
2023-04-21T05:45:10.135Z,100.00
2023-04-21T05:48:13.590Z,100.00
2023-04-21T05:51:16.100Z,100.00
2023-04-21T05:54:18.600Z,100.00
2023-04-21T05:57:21.046Z,100.00
2023-04-21T06:00:23.236Z,100.00
2023-04-21T06:03:32.890Z,100.00
2023-04-21T06:06:37.477Z,100.00
2023-04-21T06:09:40.651Z,100.00
2023-04-21T06:12:43.453Z,100.00
2023-04-21T06:15:46.523Z,100.00
2023-04-21T06:18:48.659Z,100.00
2023-04-21T06:21:51.085Z,100.00
2023-04-21T06:24:53.336Z,100.00
2023-04-21T06:27:56.936Z,100.00
2023-04-21T06:31:01.290Z,100.00
2023-04-21T06:34:11.096Z,100.00
2023-04-21T06:37:22.060Z,100.00
2023-04-21T06:40:24.582Z,100.00
2023-04-21T06:43:29.532Z,100.00
2023-04-21T06:46:33.495Z,100.00
2023-04-21T06:49:38.700Z,100.00
2023-04-21T06:52:41.609Z,100.00
2023-04-21T06:55:43.882Z,100.00
2023-04-21T06:58:47.354Z,99.20
2023-04-21T07:01:52.497Z,98.32
2023-04-21T07:04:55.781Z,98.13
2023-04-21T07:08:00.048Z,97.53
2023-04-21T07:11:03.978Z,96.02
2023-04-21T07:14:06.748Z,95.54
2023-04-21T07:17:09.074Z,94.15
2023-04-21T07:20:12.844Z,94.23
2023-04-21T07:23:15.097Z,94.10
2023-04-21T07:26:19.702Z,94.43
2023-04-21T07:29:22.434Z,89.80
2023-04-21T07:32:24.763Z,81.23
2023-04-21T07:35:27.389Z,77.01
2023-04-21T07:38:30.537Z,77.49
2023-04-21T07:41:35.465Z,78.04
2023-04-21T07:44:38.691Z,79.57
2023-04-21T07:47:40.902Z,78.20
2023-04-21T07:50:43.143Z,79.65
2023-04-21T07:53:45.264Z,80.44
2023-04-21T07:56:47.497Z,81.36
2023-04-21T07:59:49.835Z,81.25
2023-04-21T08:02:52.100Z,81.94
2023-04-21T08:05:54.921Z,81.55
2023-04-21T08:08:57.634Z,81.24
2023-04-21T08:11:59.856Z,80.99
2023-04-21T08:15:06.060Z,80.34
2023-04-21T08:18:09.539Z,80.94
2023-04-21T08:21:12.868Z,80.67
2023-04-21T08:24:15.413Z,80.50
2023-04-21T08:27:17.892Z,79.75
2023-04-21T08:30:22.228Z,80.30
2023-04-21T08:33:24.985Z,79.02
2023-04-21T08:36:29.922Z,79.87
2023-04-21T08:39:32.334Z,80.62
2023-04-21T08:42:37.074Z,79.00
2023-04-21T08:45:40.741Z,77.73
2023-04-21T08:48:43.850Z,78.62
2023-04-21T08:51:49.810Z,79.98
2023-04-21T08:54:53.789Z,79.56
2023-04-21T08:57:56.568Z,78.83
2023-04-21T09:00:58.819Z,76.84
2023-04-21T09:04:19.191Z,77.58
2023-04-21T09:07:41.978Z,77.98
2023-04-21T09:10:49.565Z,78.90
2023-04-21T09:13:51.976Z,78.68
2023-04-21T09:17:03.456Z,78.22
2023-04-21T09:20:21.040Z,78.33
2023-04-21T09:23:23.073Z,77.88
2023-04-21T09:26:26.426Z,79.66
2023-04-21T09:29:28.950Z,86.70
2023-04-21T09:32:42.678Z,89.81
2023-04-21T09:35:44.987Z,100.00
2023-04-21T09:42:12.038Z,100.00
2023-04-21T09:48:31.408Z,100.00
2023-04-21T09:54:47.140Z,100.00
2023-04-21T09:57:55.945Z,100.00
2023-04-21T10:00:58.146Z,100.00
2023-04-21T10:04:06.448Z,100.00
2023-04-21T10:07:12.218Z,100.00
2023-04-21T10:10:24.779Z,100.00
2023-04-21T10:13:27.535Z,100.00
2023-04-21T10:16:31.958Z,98.83
2023-04-21T10:19:40.028Z,98.60
2023-04-21T10:22:43.193Z,94.86
2023-04-21T10:25:49.336Z,91.05
2023-04-21T10:29:03.322Z,87.00
2023-04-21T10:32:09.270Z,86.90
2023-04-21T10:35:53.690Z,85.66
2023-04-21T10:38:57.577Z,88.53
2023-04-21T10:45:51.852Z,85.54
2023-04-21T10:48:54.796Z,84.49
2023-04-21T10:52:22.611Z,84.69
2023-04-21T10:55:29.942Z,82.62
2023-04-21T10:58:36.844Z,83.14
2023-04-21T11:01:41.806Z,82.27
2023-04-21T11:04:49.104Z,82.74
2023-04-21T11:07:52.973Z,84.08
2023-04-21T11:10:57.631Z,84.90
2023-04-21T11:14:05.022Z,85.74
2023-04-21T11:17:28.859Z,85.60
2023-04-21T11:20:35.166Z,84.85
2023-04-21T11:23:42.510Z,86.79
2023-04-21T11:26:50.847Z,86.68
2023-04-21T11:29:56.237Z,90.19
2023-04-21T11:32:59.038Z,91.61
2023-04-21T11:36:05.790Z,95.93
2023-04-21T11:39:21.758Z,84.44
2023-04-21T11:42:24.400Z,74.01
2023-04-21T11:45:27.775Z,71.19
2023-04-21T11:48:30.264Z,70.20
2023-04-21T11:51:42.008Z,68.01
2023-04-21T11:54:44.316Z,67.02
2023-04-21T11:57:47.357Z,66.90
2023-04-21T12:00:51.210Z,66.08
2023-04-21T12:03:55.246Z,67.01
2023-04-21T12:07:22.620Z,72.65
2023-04-21T12:10:26.986Z,77.19
2023-04-21T12:13:31.531Z,79.98
2023-04-21T12:16:33.728Z,82.09
2023-04-21T12:19:41.293Z,83.95
2023-04-21T12:22:43.717Z,84.91
2023-04-21T12:25:47.157Z,83.59
2023-04-21T12:28:49.894Z,82.58
2023-04-21T12:31:52.044Z,81.50
2023-04-21T12:34:54.166Z,81.50
2023-04-21T12:37:56.263Z,81.53
2023-04-21T12:40:58.476Z,82.68
2023-04-21T12:44:01.249Z,83.39
2023-04-21T12:47:03.483Z,81.46
2023-04-21T12:50:06.184Z,81.15
2023-04-21T12:53:08.546Z,81.10
2023-04-21T12:56:12.074Z,81.53
2023-04-21T12:59:14.218Z,81.84
2023-04-21T13:02:16.891Z,82.11
2023-04-21T13:05:19.708Z,82.46
2023-04-21T13:08:21.914Z,84.13
2023-04-21T13:11:24.006Z,83.42
2023-04-21T13:14:26.123Z,85.86
2023-04-21T13:17:28.620Z,87.20
2023-04-21T13:20:31.361Z,88.62
2023-04-21T13:23:33.469Z,90.69
2023-04-21T13:26:35.567Z,90.89
2023-04-21T13:29:37.722Z,92.06
2023-04-21T13:32:41.136Z,90.69
2023-04-21T13:35:43.329Z,83.48
2023-04-21T13:38:45.666Z,67.98
2023-04-21T13:41:48.555Z,65.87
2023-04-21T13:44:50.676Z,61.42
2023-04-21T13:47:53.073Z,61.71
2023-04-21T13:50:55.827Z,61.36
2023-04-21T13:54:00.153Z,59.64
2023-04-21T13:57:02.346Z,59.48
2023-04-21T14:00:06.749Z,57.76
2023-04-21T14:03:09.989Z,56.04
2023-04-21T14:06:12.235Z,57.23
2023-04-21T14:09:14.320Z,56.78
2023-04-21T14:12:16.510Z,57.50
2023-04-21T14:15:18.794Z,56.30
2023-04-21T14:18:21.229Z,55.40
2023-04-21T14:21:23.401Z,56.71
2023-04-21T14:24:28.765Z,56.68
2023-04-21T14:27:31.304Z,58.09
2023-04-21T14:30:35.297Z,63.05
2023-04-21T14:33:41.453Z,65.06
2023-04-21T14:36:49.807Z,64.72
2023-04-21T14:39:56.081Z,65.39
2023-04-21T14:42:59.595Z,65.60
2023-04-21T14:46:01.961Z,64.36
2023-04-21T14:49:04.773Z,63.66
2023-04-21T14:52:07.512Z,63.77
2023-04-21T14:55:10.114Z,63.42
2023-04-21T14:58:12.573Z,64.36
2023-04-21T15:01:14.796Z,64.25
2023-04-21T15:04:17.256Z,64.47
2023-04-21T15:07:24.245Z,64.71
2023-04-21T15:10:27.581Z,64.20
2023-04-21T15:13:29.857Z,65.60
2023-04-21T15:16:32.044Z,64.86
2023-04-21T15:19:34.341Z,64.68
2023-04-21T15:22:37.269Z,63.37
2023-04-21T15:25:39.974Z,64.07
2023-04-21T15:28:42.530Z,64.64
2023-04-21T15:31:45.665Z,66.65
2023-04-21T15:34:47.868Z,73.50
2023-04-21T15:37:50.498Z,76.14
2023-04-21T15:41:01.319Z,77.60
2023-04-21T15:44:03.978Z,78.71
2023-04-21T15:47:08.741Z,78.41
2023-04-21T15:50:11.864Z,80.47
2023-04-21T15:53:15.041Z,80.07
2023-04-21T15:57:09.277Z,81.30
2023-04-21T16:00:15.658Z,82.02
2023-04-21T16:03:20.496Z,80.12
2023-04-21T16:06:30.430Z,79.60
2023-04-21T16:09:34.594Z,81.85
2023-04-21T16:16:29.654Z,80.36
2023-04-21T16:19:33.537Z,79.95
2023-04-21T16:22:36.084Z,79.53
2023-04-21T16:25:38.516Z,80.29
2023-04-21T16:28:41.975Z,80.17
2023-04-21T16:31:45.574Z,79.82
2023-04-21T16:34:48.183Z,79.48
2023-04-21T16:37:53.525Z,78.94
2023-04-21T16:40:55.683Z,79.19
2023-04-21T16:43:59.456Z,78.68
2023-04-21T16:47:04.706Z,79.33
2023-04-21T16:50:11.383Z,80.75
2023-04-21T16:53:15.672Z,81.54
2023-04-21T16:56:22.256Z,81.30
2023-04-21T16:59:26.569Z,81.41
2023-04-21T17:02:28.720Z,82.36
2023-04-21T17:05:31.035Z,82.54
2023-04-21T17:08:36.344Z,83.13
2023-04-21T17:11:43.932Z,83.45
2023-04-21T17:14:46.933Z,83.61
2023-04-21T17:17:52.257Z,84.07
2023-04-21T17:21:13.659Z,84.10
2023-04-21T17:24:17.905Z,83.66
2023-04-21T17:27:23.917Z,84.94
2023-04-21T17:30:26.180Z,84.20
2023-04-21T17:33:35.647Z,84.33
2023-04-21T17:36:39.577Z,84.00
2023-04-21T17:39:41.947Z,84.76
2023-04-21T17:42:43.950Z,84.89
2023-04-21T17:45:46.217Z,84.84
2023-04-21T17:48:49.761Z,85.20
2023-04-21T17:51:55.107Z,84.65
2023-04-21T17:54:58.515Z,85.26
2023-04-21T17:58:00.742Z,85.31
2023-04-21T18:01:28.599Z,85.10
2023-04-21T18:04:34.935Z,85.60
2023-04-21T18:07:38.193Z,85.28
2023-04-21T18:10:44.338Z,85.16
2023-04-21T18:13:46.571Z,84.78
2023-04-21T18:16:49.556Z,87.90
2023-04-21T18:19:54.972Z,87.50
2023-04-21T18:23:01.758Z,93.35
2023-04-21T18:26:04.007Z,96.46
2023-04-21T18:29:06.571Z,99.42
2023-04-21T18:32:08.814Z,100.00
2023-04-21T18:35:11.400Z,100.00
2023-04-21T18:38:13.816Z,100.00
2023-04-21T18:41:16.582Z,100.00
2023-04-21T18:44:18.736Z,100.00
2023-04-21T18:47:23.472Z,100.00
2023-04-21T18:50:29.760Z,100.00
2023-04-21T18:53:34.111Z,100.00
2023-04-21T18:56:36.832Z,100.00
2023-04-21T18:59:39.753Z,100.00
2023-04-21T19:02:43.403Z,100.00
2023-04-21T19:05:47.253Z,99.28
2023-04-21T19:08:51.361Z,99.45
2023-04-21T19:11:53.650Z,99.01
2023-04-21T19:14:55.845Z,97.81
2023-04-21T19:17:59.872Z,98.04
2023-04-21T19:21:04.864Z,97.42
2023-04-21T19:24:06.977Z,96.75
2023-04-21T19:27:09.324Z,97.07
2023-04-21T19:30:12.815Z,97.00
2023-04-21T19:33:17.648Z,100.00
2023-04-21T19:36:20.892Z,100.00
2023-04-21T19:39:23.264Z,100.00
2023-04-21T19:42:25.577Z,100.00
2023-04-21T19:45:28.603Z,100.00
2023-04-21T19:48:32.296Z,100.00
2023-04-21T19:51:36.439Z,100.00
2023-04-21T19:54:39.875Z,100.00
2023-04-21T19:57:42.239Z,100.00
2023-04-21T20:00:46.535Z,100.00
2023-04-21T20:03:48.883Z,100.00
2023-04-21T20:06:51.500Z,100.00
2023-04-21T20:09:53.682Z,100.00
2023-04-21T20:12:57.875Z,100.00
2023-04-21T20:16:03.847Z,100.00
2023-04-21T20:19:06.143Z,100.00
2023-04-21T20:22:14.227Z,100.00
2023-04-21T20:25:17.107Z,100.00
2023-04-21T20:28:19.746Z,100.00
2023-04-21T20:31:24.276Z,100.00
2023-04-21T20:34:27.751Z,100.00
2023-04-21T20:37:30.719Z,100.00
2023-04-21T20:40:35.532Z,100.00
2023-04-21T20:43:39.160Z,100.00
2023-04-21T20:46:41.525Z,100.00
2023-04-21T20:49:43.854Z,100.00
2023-04-21T20:52:46.754Z,100.00
2023-04-21T20:55:49.977Z,100.00
2023-04-21T20:58:52.588Z,100.00
2023-04-21T21:01:54.853Z,100.00
2023-04-21T21:04:57.064Z,100.00
2023-04-21T21:07:59.397Z,100.00
2023-04-21T21:11:01.493Z,100.00
2023-04-21T21:14:03.576Z,100.00
2023-04-21T21:17:05.698Z,100.00
2023-04-21T21:20:08.696Z,100.00
2023-04-21T21:23:11.856Z,100.00
2023-04-21T21:26:14.066Z,100.00
2023-04-21T21:29:16.198Z,100.00
2023-04-21T21:32:18.831Z,100.00
2023-04-21T21:35:21.239Z,100.00
2023-04-21T21:38:23.348Z,99.63
2023-04-21T21:41:25.966Z,99.24
2023-04-21T21:44:28.282Z,99.52
2023-04-21T21:47:30.494Z,97.62
2023-04-21T21:50:32.641Z,99.10
2023-04-21T21:53:35.339Z,99.05
2023-04-21T21:56:37.798Z,99.48
2023-04-21T21:59:40.242Z,99.29
2023-04-21T22:02:42.975Z,98.21
2023-04-21T22:05:45.182Z,98.08
2023-04-21T22:08:47.721Z,97.21
2023-04-21T22:11:49.892Z,97.12
2023-04-21T22:14:54.166Z,97.50
2023-04-21T22:17:56.856Z,96.30
2023-04-21T22:20:59.944Z,95.83
2023-04-21T22:24:02.553Z,96.74
2023-04-21T22:27:04.756Z,96.60
2023-04-21T22:30:07.713Z,96.72
2023-04-21T22:33:09.926Z,96.24
2023-04-21T22:36:12.108Z,96.13
2023-04-21T22:39:14.268Z,96.71
2023-04-21T22:42:16.977Z,96.26
2023-04-21T22:45:19.563Z,95.82
2023-04-21T22:48:22.256Z,96.84
2023-04-21T22:51:24.914Z,96.45
2023-04-21T22:54:27.906Z,97.00
2023-04-21T22:57:30.439Z,96.34
2023-04-21T23:00:32.689Z,96.21
2023-04-21T23:03:34.963Z,96.20
2023-04-21T23:06:38.396Z,95.77
2023-04-21T23:09:40.754Z,96.16
2023-04-21T23:12:43.131Z,96.03
2023-04-21T23:15:45.432Z,95.86
2023-04-21T23:18:48.428Z,96.15
2023-04-21T23:21:51.734Z,95.47
2023-04-21T23:24:54.029Z,95.91
2023-04-21T23:27:57.232Z,95.61
2023-04-21T23:31:00.533Z,95.05
2023-04-21T23:34:02.683Z,94.89
2023-04-21T23:37:05.270Z,95.37
2023-04-21T23:40:11.448Z,95.08
2023-04-21T23:43:13.588Z,95.13
2023-04-21T23:46:15.728Z,95.23
2023-04-21T23:49:18.159Z,94.99
2023-04-21T23:52:20.544Z,94.58
2023-04-21T23:55:22.807Z,94.25
2023-04-21T23:58:24.959Z,94.56
